Latest Weather Observations for Urandangi

IDQ60801

Issued at 6:32 pm EST Tuesday 17 January 2017 (issued every 30 minutes, with the page automatically refreshed every 10 minutes)

About weather observations | Map of weather stations | Latest weather observations for QLD | Other Formats
Station Details ID: 037058 Name: URANDANGI AERODROME Lat: -21.60 Lon: 138.37 Height: 178.6 m
Data from the previous 72 hours. | See also: Recent months at Urandangi
Date/Time
EST
Temp
°C
App
Temp
°C
Dew
Point
°C
Rel
Hum
%
Delta-T
°C
Wind Press
QNH
hPa
Press
MSL
hPa
Rain since
9am
mm
Dir  Spd
km/h
Gust
km/h
Spd
kts
Gust
kts
17/06:30pm 31.2 30.9 22.5 60 6.0 N 28 35 15 19 1008.0 1006.6 0.0
17/06:00pm 31.6 30.4 21.5 55 6.9 NNW 30 46 16 25 1008.0 1006.6 0.0
17/05:30pm 30.2 29.2 21.3 59 6.0 N 28 39 15 21 1007.7 1006.3 0.0
17/05:00pm 32.1 30.5 21.6 53 7.2 NNE 32 44 17 24 1007.2 1005.8 0.0
17/04:30pm 34.4 35.4 21.1 45 9.0 NNE 17 28 9 15 1007.0 1005.6 0.0
17/04:00pm 32.6 33.0 21.8 53 7.4 NNE 22 35 12 19 1007.2 1005.8 0.0
17/03:30pm 33.4 34.5 21.2 48 8.3 N 17 24 9 13 1007.4 1006.0 0.0
17/03:00pm 33.6 33.9 20.7 46 8.7 N 20 30 11 16 1007.7 1006.3 0.0
17/02:30pm 33.4 34.6 22.2 52 7.7 N 19 32 10 17 1008.1 1006.7 0.0
17/02:00pm 33.1 34.2 21.9 51 7.7 N 19 30 10 16 1008.4 1007.0 0.0
17/01:30pm 32.6 32.1 21.5 52 7.5 N 26 35 14 19 1008.7 1007.3 0.0
17/01:00pm 31.9 31.9 21.7 54 7.0 N 24 33 13 18 1008.9 1007.5 0.0
17/12:30pm 32.3 32.5 22.1 55 7.0 N 24 35 13 19 1009.1 1007.7 0.0
17/12:00pm 31.4 31.2 22.1 57 6.4 N 26 35 14 19 1009.5 1008.1 0.0
17/11:30am 30.9 30.1 21.7 58 6.2 N 28 37 15 20 1009.7 1008.3 0.0
17/11:00am 29.9 28.7 21.6 61 5.6 NNE 30 39 16 21 1010.0 1008.6 0.0
17/10:30am 30.0 29.6 22.4 63 5.2 N 28 39 15 21 1010.2 1008.8 0.0
17/10:00am 29.6 28.4 21.5 61 5.5 N 30 39 16 21 1010.3 1008.9 0.0
17/09:30am 28.9 29.4 21.9 66 4.7 N 22 32 12 17 1010.2 1008.8 0.0
17/09:00am 27.5 26.8 21.8 71 3.8 N 28 41 15 22 1010.2 1008.8 0.8
17/08:30am 27.4 27.8 22.4 74 3.4 NNE 24 33 13 18 1010.2 1008.8 0.8
17/08:00am 26.3 27.0 22.2 78 2.8 N 22 32 12 17 1010.2 1008.8 0.8
17/07:30am 26.0 28.4 22.3 80 2.5 NNE 13 17 7 9 1010.1 1008.7 0.8
17/07:00am 24.9 27.9 22.0 84 1.9 NNE 9 13 5 7 1009.7 1008.3 0.8
17/06:30am 24.3 27.3 22.0 87 1.5 NNE 9 13 5 7 1009.2 1007.8 0.8
17/06:00am 24.1 26.6 21.8 87 1.5 NNE 11 15 6 8 1008.6 1007.2 0.8
17/05:30am 24.5 27.1 22.0 86 1.7 NNE 11 17 6 9 1008.1 1006.7 0.8
17/05:00am 24.4 27.4 21.9 86 1.7 NNE 9 13 5 7 1007.7 1006.3 0.8
17/04:30am 24.7 28.1 22.0 85 1.8 N 7 11 4 6 1007.4 1006.0 0.8
17/04:00am 25.2 27.8 21.9 82 2.2 NNE 11 15 6 8 1007.1 1005.7 0.8
17/03:30am 25.7 27.1 21.8 79 2.6 N 17 24 9 13 1007.1 1005.7 0.8
17/03:00am 25.8 28.1 22.1 80 2.5 NNE 13 20 7 11 1007.1 1005.7 0.8
17/02:30am 25.3 28.6 22.6 85 1.8 NNE 9 13 5 7 1006.9 1005.5 0.8
17/02:00am 25.6 29.2 23.1 86 1.7 NNE 9 11 5 6 1006.8 1005.4 0.8
17/01:30am 25.9 29.6 23.2 85 1.8 NNE 9 13 5 7 1006.9 1005.5 0.8
17/01:00am 26.2 31.0 24.1 88 1.5 NNE 6 7 3 4 1007.2 1005.8 0.8
17/12:30am 26.6 32.7 24.4 88 1.5 CALM 0 2 0 1 1007.6 1006.2 0.8
17/12:00am 26.9 32.7 24.5 87 1.7 N 2 4 1 2 1007.9 1006.5 0.8
 
Date/Time
EST
Temp
°C
App
Temp
°C
Dew
Point
°C
Rel
Hum
%
Delta-T
°C
Wind Press
QNH
hPa
Press
MSL
hPa
Rain since
9am
mm
Dir  Spd
km/h
Gust
km/h
Spd
kts
Gust
kts
16/11:30pm 27.0 32.3 24.3 85 1.9 NNE 4 4 2 2 1008.2 1006.8 0.8
16/11:00pm 26.9 31.8 24.4 86 1.7 NE 6 6 3 3 1008.2 1006.8 0.8
16/10:30pm 26.8 30.7 24.3 86 1.7 ENE 11 13 6 7 1008.2 1006.8 0.8
16/10:00pm 27.2 32.6 25.2 89 1.4 NE 6 9 3 5 1007.8 1006.4 0.8
16/09:30pm 27.3 32.4 24.9 87 1.7 N 7 9 4 5 1007.4 1006.0 0.8
16/09:00pm 26.3 31.6 24.3 89 1.4 ENE 4 15 2 8 1007.0 1005.6 0.8
16/08:30pm 26.7 31.2 24.0 85 1.9 SE 7 19 4 10 1006.5 1005.1 0.8
16/08:00pm 26.8 32.6 24.6 88 1.5 SSW 2 4 1 2 1006.0 1004.7 0.8
16/07:30pm 26.9 32.0 24.7 88 1.5 SW 6 6 3 3 1005.9 1004.6 0.8
16/07:00pm 26.8 31.2 25.0 90 1.3 SSW 11 13 6 7 1005.5 1004.1 0.8
16/06:30pm 27.4 30.8 24.1 82 2.3 ESE 13 24 7 13 1005.4 1004.0 0.8
16/06:23pm 28.1 29.9 23.5 76 3.2 SE 20 28 11 15 1005.2 1003.8 0.4
16/06:00pm 33.1 35.1 21.6 51 7.9 NNE 13 19 7 10 1004.2 1002.8 0.0
16/05:30pm 33.4 36.7 21.5 49 8.1 N 6 9 3 5 1003.9 1002.5 0.0
16/05:00pm 34.1 36.9 21.5 47 8.6 NNE 9 15 5 8 1004.0 1002.6 0.0
16/04:30pm 33.7 35.9 21.8 49 8.1 NNW 13 19 7 10 1004.2 1002.8 0.0
16/04:00pm 34.0 37.6 22.1 50 8.2 N 6 9 3 5 1004.6 1003.2 0.0
16/03:30pm 33.3 35.8 21.8 51 7.9 N 11 19 6 10 1005.1 1003.7 0.0
16/03:00pm 32.5 34.6 21.7 53 7.4 NNE 13 19 7 10 1005.4 1004.0 0.0
16/02:30pm 33.2 36.2 22.6 53 7.3 NNE 11 17 6 9 1005.7 1004.4 0.0
16/02:00pm 32.4 34.5 22.5 56 6.8 N 15 24 8 13 1006.2 1004.8 0.0
16/01:30pm 32.6 35.1 21.8 53 7.4 NNE 11 17 6 9 1006.4 1005.0 0.0
16/01:00pm 32.3 34.4 22.4 56 6.8 NNE 15 20 8 11 1006.7 1005.3 0.0
16/12:30pm 31.3 33.2 22.0 57 6.3 N 15 26 8 14 1007.0 1005.6 0.0
16/12:00pm 32.0 33.7 23.0 59 6.2 NNE 19 30 10 16 1007.3 1005.9 0.0
16/11:30am 31.4 33.6 23.2 61 5.7 N 17 24 9 13 1007.5 1006.1 0.0
16/11:00am 30.4 33.0 22.6 63 5.4 NNE 13 20 7 11 1007.7 1006.3 0.0
16/10:30am 29.3 31.6 22.8 68 4.5 N 15 24 8 13 1007.7 1006.3 0.0
16/10:00am 29.4 31.8 23.6 71 4.0 N 17 24 9 13 1007.8 1006.4 0.0
16/09:30am 28.6 32.1 22.8 71 4.0 NNE 9 19 5 10 1007.8 1006.4 0.0
16/09:00am 27.1 31.5 23.8 82 2.3 NNE 7 11 4 6 1007.7 1006.3 13.6
16/08:30am 26.1 30.0 23.6 86 1.7 ENE 9 13 5 7 1007.7 1006.3 13.6
16/08:00am 25.7 28.6 23.2 86 1.7 ENE 13 17 7 9 1007.3 1005.9 13.6
16/07:30am 25.8 30.4 23.8 89 1.4 ESE 6 7 3 4 1006.5 1005.1 13.6
16/07:00am 25.0 29.4 23.8 93 0.8 ESE 7 11 4 6 1006.7 1005.3 13.6
16/06:30am 24.3 28.5 23.4 95 0.6 SE 7 13 4 7 1006.8 1005.4 13.6
16/06:00am 24.1 28.1 23.1 94 0.7 ESE 7 9 4 5 1006.4 1005.0 13.6
16/05:30am 24.2 27.4 23.0 93 0.8 E 11 15 6 8 1005.7 1004.4 13.6
16/05:00am 24.2 26.6 23.0 93 0.8 NE 15 20 8 11 1005.0 1003.6 13.6
16/04:30am 23.9 27.5 23.0 95 0.6 ENE 9 11 5 6 1004.8 1003.4 13.6
16/04:00am 23.8 27.9 23.0 95 0.5 E 6 7 3 4 1005.0 1003.6 13.6
16/03:30am 23.6 28.8 22.8 95 0.5 CALM 0 2 0 1 1005.7 1004.4 13.6
16/03:00am 23.5 27.5 22.7 95 0.5 SSE 6 9 3 5 1006.4 1005.0 13.6
16/02:30am 23.4 26.7 22.6 95 0.5 SSE 9 11 5 6 1006.6 1005.2 13.6
16/02:00am 23.3 25.9 22.6 96 0.5 SSE 13 17 7 9 1007.2 1005.8 13.4
16/01:30am 23.4 26.8 22.7 96 0.5 SE 9 15 5 8 1007.6 1006.2 13.2
16/01:00am 23.1 24.8 22.4 96 0.5 SE 17 24 9 13 1008.8 1007.4 9.8
16/12:30am 22.8 22.3 21.4 92 0.9 SSE 26 39 14 21 1008.6 1007.2 6.0
16/12:24am 25.0 28.1 22.9 88 1.4 ESE 11 39 6 21 1008.8 1007.4 1.2
16/12:00am 26.3 31.7 23.8 86 1.7 SW 2 4 1 2 1008.1 1006.7 0.0
 
Date/Time
EST
Temp
°C
App
Temp
°C
Dew
Point
°C
Rel
Hum
%
Delta-T
°C
Wind Press
QNH
hPa
Press
MSL
hPa
Rain since
9am
mm
Dir  Spd
km/h
Gust
km/h
Spd
kts
Gust
kts
15/11:30pm 26.3 30.1 23.4 84 2.0 SW 9 17 5 9 1008.5 1007.1 0.0
15/11:00pm 25.8 30.7 23.7 88 1.4 W 4 6 2 3 1008.0 1006.6 0.0
15/10:30pm 25.9 30.3 23.8 88 1.4 NW 7 9 4 5 1007.3 1005.9 0.0
15/10:00pm 26.0 30.0 23.7 87 1.6 NW 9 9 5 5 1007.2 1005.8 0.0
15/09:30pm 26.3 30.2 23.6 85 1.9 NNW 9 11 5 6 1007.2 1005.8 0.0
15/09:00pm 26.6 30.6 23.7 84 2.0 NW 9 13 5 7 1006.9 1005.5 0.0
15/08:30pm 26.6 30.4 24.1 86 1.7 NNW 11 15 6 8 1006.6 1005.2 0.0
15/08:00pm 26.8 30.0 24.3 86 1.7 N 15 20 8 11 1006.3 1004.9 0.0
15/07:30pm 27.1 28.8 24.0 83 2.1 N 22 30 12 16 1006.3 1004.9 0.0
15/07:00pm 27.4 28.6 23.8 81 2.5 N 24 33 13 18 1005.8 1004.5 0.0
15/06:54pm 27.6 28.7 23.0 76 3.2 N 22 30 12 16 1005.8 1004.5 0.0
15/06:30pm 32.6 34.6 21.5 52 7.5 E 13 24 7 13 1005.0 1003.6 0.0
15/06:00pm 34.2 34.6 19.8 42 9.6 SSE 17 26 9 14 1004.7 1003.3 0.0
15/05:30pm 34.8 35.2 20.7 43 9.5 SE 19 26 10 14 1004.8 1003.4 0.0
15/05:00pm 34.5 34.5 19.7 41 9.9 ESE 19 28 10 15 1004.9 1003.5 0.0
15/04:30pm 34.5 34.8 20.8 44 9.3 ESE 20 32 11 17 1005.1 1003.7 0.0
15/04:00pm 35.0 35.0 21.6 45 9.2 SE 24 30 13 16 1005.5 1004.1 0.0
15/03:30pm 34.7 35.5 21.7 46 8.9 SE 20 30 11 16 1005.7 1004.4 0.0
15/03:00pm 34.7 36.0 22.4 48 8.5 SE 19 30 10 16 1006.3 1004.9 0.0
15/02:30pm 34.3 36.7 23.6 53 7.5 SSE 17 32 9 17 1006.6 1005.2 0.0
15/02:00pm 33.6 35.3 22.4 52 7.7 SE 17 24 9 13 1007.1 1005.7 0.0
15/01:30pm 32.9 35.2 23.5 57 6.6 SE 17 22 9 12 1007.7 1006.3 0.0
15/01:00pm 33.2 34.8 22.9 54 7.2 SE 19 28 10 15 1007.9 1006.5 0.0
15/12:30pm 32.4 34.3 23.4 59 6.3 SSE 19 28 10 15 1008.3 1006.9 0.0
15/12:00pm 31.8 34.0 23.9 63 5.5 SE 19 28 10 15 1008.7 1007.3 0.0
15/11:30am 31.5 33.8 24.1 65 5.2 SE 19 26 10 14 1009.0 1007.6 0.0
15/11:00am 31.4 33.8 24.3 66 5.0 SSE 19 30 10 16 1009.1 1007.7 0.0
15/10:30am 30.0 32.9 24.4 72 3.9 SSE 17 24 9 13 1009.4 1008.0 0.0
15/10:00am 28.2 32.1 24.2 79 2.8 S 11 19 6 10 1009.8 1008.4 0.0
15/09:30am 27.3 32.1 24.4 84 2.0 S 7 9 4 5 1010.0 1008.6 0.0
15/09:00am 27.2 31.5 24.3 84 2.0 WSW 9 13 5 7 1009.6 1008.2 3.4
15/08:30am 26.3 30.6 24.3 89 1.4 WSW 9 13 5 7 1009.6 1008.2 3.4
15/08:00am 25.9 30.6 24.3 91 1.1 SW 7 9 4 5 1009.8 1008.4 3.4
15/07:30am 25.6 29.6 24.4 93 0.8 WSW 11 15 6 8 1009.5 1008.1 3.4
15/07:00am 25.4 29.8 24.4 94 0.7 W 9 11 5 6 1009.2 1007.8 3.4
15/06:30am 25.4 30.2 24.4 94 0.7 WNW 7 11 4 6 1008.9 1007.5 3.4
15/06:00am 25.4 30.4 24.5 95 0.6 SW 6 9 3 5 1008.3 1006.9 3.4
15/05:30am 25.0 28.4 24.1 95 0.6 NNW 13 19 7 10 1007.4 1006.0 3.4
15/05:00am 24.8 28.9 23.9 95 0.6 NW 9 11 5 6 1007.2 1005.8 3.4
15/04:30am 24.6 29.8 23.6 94 0.7 N 2 4 1 2 1006.9 1005.5 3.4
15/04:00am 24.4 28.6 23.5 95 0.6 SE 7 9 4 5 1006.9 1005.5 3.4
15/03:30am 24.6 27.0 23.6 94 0.7 ESE 17 22 9 12 1007.4 1006.0 2.2
15/03:00am 25.4 28.1 24.2 93 0.8 SE 17 22 9 12 1008.1 1006.7 0.6
15/02:30am 26.8 28.8 23.9 84 2.0 SE 20 32 11 17 1008.7 1007.3 0.0
15/02:00am 27.6 27.9 23.6 79 2.8 SSE 28 37 15 20 1009.0 1007.6 0.0
15/01:30am 28.1 29.7 23.2 74 3.4 SSE 20 30 11 16 1009.0 1007.6 0.0
15/01:00am 28.6 30.0 23.5 74 3.5 SE 22 30 12 16 1008.9 1007.5 0.0
15/12:30am 28.9 32.8 24.2 76 3.3 SSE 11 19 6 10 1008.8 1007.4 0.0
15/12:00am 28.4 34.0 24.8 81 2.5 SSE 4 6 2 3 1008.7 1007.3 0.0
 
Date/Time
EST
Temp
°C
App
Temp
°C
Dew
Point
°C
Rel
Hum
%
Delta-T
°C
Wind Press
QNH
hPa
Press
MSL
hPa
Rain since
9am
mm
Dir  Spd
km/h
Gust
km/h
Spd
kts
Gust
kts
14/11:30pm 28.4 33.5 24.6 80 2.7 SSE 6 6 3 3 1009.0 1007.6 0.0
14/11:00pm 28.9 33.5 24.2 76 3.3 S 7 9 4 5 1009.0 1007.6 0.0
14/10:30pm 29.4 33.2 24.0 72 3.8 S 11 13 6 7 1008.6 1007.2 0.0
14/10:00pm 29.6 33.1 24.9 76 3.3 S 15 20 8 11 1008.2 1006.8 0.0
14/09:30pm 30.1 35.9 25.8 78 3.1 S 6 6 3 3 1007.5 1006.1 0.0
14/09:00pm 30.4 35.7 25.0 73 3.8 S 6 7 3 4 1007.1 1005.7 0.0
14/08:30pm 30.7 36.1 25.1 72 4.0 SSE 6 6 3 3 1006.9 1005.5 0.0
14/08:00pm 31.1 36.8 25.0 70 4.3 SE 4 6 2 3 1006.8 1005.4 0.0
14/07:30pm 32.0 36.2 23.5 60 5.9 S 7 9 4 5 1006.7 1005.3 0.0
14/07:00pm 33.8 37.1 22.6 52 7.8 S 9 13 5 7 1006.4 1005.0 0.0

Other Formats:

Comma delimited format used in spreadsheet applications
http://www.bom.gov.au/fwo/IDQ60801/IDQ60801.94344.axf

JavaScript Object Notation format (JSON) in row-major order
http://www.bom.gov.au/fwo/IDQ60801/IDQ60801.94344.json